Terminal Aerodrome Forecast
Issued by NWS Twin Cities, MN

Home | Current Version | Previous Version | Text Only | Print | Product List | Glossary On
Versions: 1 2 3 4 5 6 7 8 9 10 11 12 13 14 15 16 17 18 19
000
FTUS43 KMPX 242300
TAFSTC
TAF
KSTC 242339Z 2500/2524 23006KT P6SM SCT008 OVC015
     FM250600 21007KT P6SM BKN008
     FM251200 20004KT P6SM BKN012
     FM251800 VRB03KT 3SM -SN BR OVC009=

USA.gov is the U.S. government's official web portal to all federal, state and local government web resources and services.